Flight Number: EUR3006 Duration: 11:00
Departure: Frankfurt Airport (EDDF) at 08:00 Distance: 5335 Nm
Arrival: Vancouver Airport (CYVR) at 19:00 Equipment: B747

Weather Information
Frankfurt / M-Flughafen, Germany (EDDF) 50-03N 008-36E 113M Aug 17, 2018 - 04:50 PM EDT / 2018.08.17 2050 UTC
Wind: from the NW (310 degrees) at 10 MPH (9 KT):0
Visibility: greater than 7 mile(s):0 Temperature: 69 F (21 C) Dew Point: 57 F (14 C) Relative Humidity: 64% Pressure (altimeter): 30.09 in. Hg (1019 hPa)
ob: EDDF 172050Z 31009KT CAVOK 21/14 Q1019 NOSIG cycle: 21
Sunrise: 04:23 Sunset: 18:36 (UTC)

Vancouver International Air-Port, B. C., Canada (CYVR) 49-11N 123-10W 2M Aug 17, 2018 - 05:00 PM EDT / 2018.08.17 2100 UTC
Wind: Variable at 3 MPH (3 KT):0
Visibility: 15 mile(s):0
Sky conditions: mostly clear Temperature: 68 F (20 C) Dew Point: 57 F (14 C) Relative Humidity: 68% Pressure (altimeter): 30.2 in. Hg (1022 hPa)
ob: CYVR 172100Z VRB03KT 15SM FEW023 20/14 A3020 RMK CU2 HZ SLP229 DENSITY ALT 300FT cycle: 21
Sunrise: 13:12 Sunset: 03:20 (UTC)

TAF:2018/08/17 21:40 TAF CYVR 172038Z 1721/1824 VRB03KT P6SM FEW020 BECMG 1721/1723 22008KT BECMG 1805/1807 08005KT FM181600 29008KT P6SM SKC RMK NXT FCST BY 180000Z

Previous Pireps for this route
Date Aircraft Flight time Fuel used Landing rate On time
2013-06-03A330-20011.03141838-338Charter
2013-07-08B77711.00179441-261Charter
2016-12-29B74711.032045590Yes
(pireps marked green are flown by you)

Route map